Time;durP1;ratioP1;P1;durP2;ratioP2;P2;SDS_P1;SDS_P2;PMS_P1;PMS_P2;Temp;Humidity;BMP_temperature;BMP_pressure;BME280_temperature;BME280_humidity;BME280_pressure;Samples;Min_cycle;Max_cycle;Signal;HPM_P1;HPM_P2
2023/01/21 00:00:06;;;;;;;62.58;11.80;;;;;;;;;;5056124;28;20066;-50
2023/01/21 00:02:33;;;;;;;65.65;13.52;;;;;;;;;;5073755;28;20044;-53
2023/01/21 00:04:59;;;;;;;46.63;12.02;;;;;;;;;;5056774;28;20545;-53
2023/01/21 00:07:26;;;;;;;69.32;13.15;;;;;;;;;;5075547;28;20094;-55
2023/01/21 00:09:52;;;;;;;42.22;10.15;;;;;;;;;;5075813;28;20040;-54
2023/01/21 00:12:19;;;;;;;58.35;12.63;;;;;;;;;;5052241;28;20578;-54
2023/01/21 00:14:45;;;;;;;47.03;10.55;;;;;;;;;;5056929;28;20033;-54
2023/01/21 00:17:12;;;;;;;44.25;10.43;;;;;;;;;;5053400;28;20052;-53
2023/01/21 00:19:39;;;;;;;41.45;9.75;;;;;;;;;;5053568;28;20053;-55
2023/01/21 00:22:05;;;;;;;64.32;12.05;;;;;;;;;;5054840;28;20131;-53
2023/01/21 00:24:32;;;;;;;46.92;9.55;;;;;;;;;;5044691;28;20088;-53
2023/01/21 00:26:58;;;;;;;46.22;10.20;;;;;;;;;;5086767;28;20064;-53
2023/01/21 00:29:25;;;;;;;54.38;12.02;;;;;;;;;;5086364;28;20052;-55
2023/01/21 00:31:51;;;;;;;47.47;9.60;;;;;;;;;;5065352;28;20135;-54
2023/01/21 00:34:18;;;;;;;41.88;9.27;;;;;;;;;;5040290;28;20033;-53
2023/01/21 00:36:45;;;;;;;45.55;9.60;;;;;;;;;;5059048;28;20052;-56
2023/01/21 00:39:11;;;;;;;44.78;10.18;;;;;;;;;;5085317;27;20622;-53
2023/01/21 00:41:38;;;;;;;47.67;9.73;;;;;;;;;;5056878;28;20615;-53
2023/01/21 00:44:04;;;;;;;47.03;10.15;;;;;;;;;;5092016;28;20033;-55
2023/01/21 00:46:31;;;;;;;65.03;11.38;;;;;;;;;;5040206;28;20056;-54
2023/01/21 00:48:59;;;;;;;34.78;8.70;;;;;;;;;;5059780;28;20072;-53
2023/01/21 00:51:25;;;;;;;49.00;9.48;;;;;;;;;;5041894;28;20127;-53
2023/01/21 00:53:52;;;;;;;45.33;8.90;;;;;;;;;;5058660;28;20067;-56
2023/01/21 00:56:18;;;;;;;49.38;9.90;;;;;;;;;;5057151;28;20037;-54
2023/01/21 00:58:45;;;;;;;45.15;9.38;;;;;;;;;;5041568;28;20091;-55
2023/01/21 01:01:14;;;;;;;47.03;9.73;;;;;;;;;;5057383;28;20048;-55
2023/01/21 01:03:41;;;;;;;41.50;8.30;;;;;;;;;;5046068;28;20041;-54
2023/01/21 01:06:12;;;;;;;41.92;8.35;;;;;;;;;;5055290;28;20696;-54
2023/01/21 01:08:39;;;;;;;35.83;7.55;;;;;;;;;;5056193;28;20095;-54
2023/01/21 01:11:06;;;;;;;39.83;7.72;;;;;;;;;;5057351;28;20056;-54
2023/01/21 01:13:33;;;;;;;60.28;8.82;;;;;;;;;;5055665;28;20141;-55
2023/01/21 01:16:01;;;;;;;35.67;6.88;;;;;;;;;;5058662;28;20056;-54
2023/01/21 01:18:28;;;;;;;48.35;7.20;;;;;;;;;;5057636;28;20036;-55
2023/01/21 01:20:55;;;;;;;46.90;6.85;;;;;;;;;;5038974;28;20420;-54
2023/01/21 01:23:22;;;;;;;47.70;8.32;;;;;;;;;;5059473;28;20036;-54
2023/01/21 01:25:55;;;;;;;36.97;6.07;;;;;;;;;;5060810;28;20707;-53
2023/01/21 01:28:21;;;;;;;83.38;11.82;;;;;;;;;;5057391;28;20040;-50
2023/01/21 01:30:48;;;;;;;27.25;7.05;;;;;;;;;;5056186;28;21133;-54
2023/01/21 01:33:15;;;;;;;39.05;8.30;;;;;;;;;;5056019;28;20055;-55
2023/01/21 01:35:45;;;;;;;53.50;9.43;;;;;;;;;;5056263;28;20408;-57
2023/01/21 01:38:13;;;;;;;32.90;8.25;;;;;;;;;;5058158;28;20106;-56
2023/01/21 01:40:39;;;;;;;51.13;10.40;;;;;;;;;;5056822;28;20036;-54
2023/01/21 01:43:13;;;;;;;44.33;9.20;;;;;;;;;;5059768;28;20053;-55
2023/01/21 01:45:40;;;;;;;45.25;9.18;;;;;;;;;;5057170;28;20099;-51
2023/01/21 01:48:08;;;;;;;50.33;10.27;;;;;;;;;;5054293;28;20464;-54
2023/01/21 01:50:37;;;;;;;69.47;11.10;;;;;;;;;;5041231;28;20057;-54
2023/01/21 01:53:04;;;;;;;47.47;9.73;;;;;;;;;;5056242;28;20064;-53
2023/01/21 01:55:32;;;;;;;62.83;10.98;;;;;;;;;;5057235;28;20048;-53
2023/01/21 01:58:00;;;;;;;60.80;10.50;;;;;;;;;;5054230;28;20056;-53
2023/01/21 02:00:26;;;;;;;52.20;9.35;;;;;;;;;;5054909;28;20037;-56
2023/01/21 02:05:40;;;;;;;35.13;7.53;;;;;;;;;;5058878;28;20140;-53
2023/01/21 02:08:07;;;;;;;36.90;8.98;;;;;;;;;;5057607;28;20064;-56
2023/01/21 02:10:34;;;;;;;77.80;12.18;;;;;;;;;;5056245;28;20045;-55
2023/01/21 02:13:01;;;;;;;54.55;10.88;;;;;;;;;;5060417;28;20077;-53
2023/01/21 02:15:31;;;;;;;37.00;9.25;;;;;;;;;;5057401;28;20687;-50
2023/01/21 02:18:07;;;;;;;53.05;10.15;;;;;;;;;;5040863;28;20135;-52
2023/01/21 02:20:37;;;;;;;45.70;10.55;;;;;;;;;;5059841;28;20036;-55
2023/01/21 02:23:33;;;;;;;53.97;10.35;;;;;;;;;;5057485;28;20451;-51
2023/01/21 02:26:02;;;;;;;33.88;9.27;;;;;;;;;;5054741;28;20053;-52
2023/01/21 02:28:47;;;;;;;77.72;12.77;;;;;;;;;;5056178;28;20562;-52
2023/01/21 02:31:23;;;;;;;35.03;7.80;;;;;;;;;;5055772;28;20060;-53
2023/01/21 02:33:50;;;;;;;31.13;8.00;;;;;;;;;;5058146;28;20119;-53
2023/01/21 02:36:19;;;;;;;34.80;7.80;;;;;;;;;;5039674;28;20044;-51
2023/01/21 02:38:49;;;;;;;36.00;8.48;;;;;;;;;;5054834;28;20095;-55
2023/01/21 02:41:22;;;;;;;32.50;8.38;;;;;;;;;;5059481;28;20072;-51
2023/01/21 02:44:04;;;;;;;42.05;8.93;;;;;;;;;;5040819;28;20159;-50
2023/01/21 02:46:43;;;;;;;63.47;11.00;;;;;;;;;;5069851;28;20079;-52
2023/01/21 02:49:22;;;;;;;32.67;8.20;;;;;;;;;;5055104;28;20033;-52
2023/01/21 02:51:48;;;;;;;31.50;8.35;;;;;;;;;;5059035;28;20040;-52
2023/01/21 02:54:35;;;;;;;34.58;8.18;;;;;;;;;;5069684;28;20563;-52
2023/01/21 02:57:01;;;;;;;61.25;10.88;;;;;;;;;;5053694;28;20036;-53
2023/01/21 02:59:28;;;;;;;37.00;8.07;;;;;;;;;;5058752;28;20040;-54
2023/01/21 03:02:12;;;;;;;57.25;10.40;;;;;;;;;;5056496;28;20632;-51
2023/01/21 03:04:38;;;;;;;;;;;;;;;;;;5054282;28;20481;-51
2023/01/21 03:07:23;;;;;;;39.45;8.43;;;;;;;;;;5056225;28;19960;-56
2023/01/21 03:09:49;;;;;;;31.52;7.38;;;;;;;;;;5072149;28;20631;-52
2023/01/21 03:12:29;;;;;;;38.08;8.18;;;;;;;;;;5053815;28;20727;-54
2023/01/21 03:17:50;;;;;;;38.55;8.52;;;;;;;;;;5083772;28;20107;-52
2023/01/21 03:20:33;;;;;;;32.55;7.50;;;;;;;;;;5044358;28;20571;-53
2023/01/21 03:23:04;;;;;;;48.33;8.68;;;;;;;;;;5059889;28;20048;-51
2023/01/21 03:25:32;;;;;;;52.17;8.35;;;;;;;;;;5054395;28;20090;-54
2023/01/21 03:28:01;;;;;;;28.48;7.40;;;;;;;;;;5038560;28;20068;-53
2023/01/21 03:30:28;;;;;;;59.67;9.95;;;;;;;;;;5057713;28;20037;-54
2023/01/21 03:32:56;;;;;;;32.38;6.93;;;;;;;;;;5056035;28;20123;-53
2023/01/21 03:35:25;;;;;;;41.88;9.90;;;;;;;;;;5055615;28;20478;-56
2023/01/21 03:38:07;;;;;;;53.25;11.82;;;;;;;;;;5062110;28;20485;-54
2023/01/21 03:40:40;;;;;;;68.25;12.38;;;;;;;;;;5056723;28;20394;-53
2023/01/21 03:43:07;;;;;;;30.25;6.70;;;;;;;;;;5056068;28;20037;-56
2023/01/21 03:45:35;;;;;;;33.60;6.45;;;;;;;;;;5054167;28;20427;-52
2023/01/21 03:48:10;;;;;;;29.38;6.20;;;;;;;;;;5054680;28;20040;-55
2023/01/21 03:50:39;;;;;;;42.83;7.57;;;;;;;;;;5057100;28;20072;-53
2023/01/21 03:53:05;;;;;;;36.83;6.35;;;;;;;;;;5057102;28;20040;-54
2023/01/21 03:55:33;;;;;;;53.50;7.47;;;;;;;;;;5055336;28;20128;-56
2023/01/21 03:58:00;;;;;;;38.67;6.55;;;;;;;;;;5053236;28;20045;-53
2023/01/21 04:00:26;;;;;;;40.58;5.40;;;;;;;;;;5061798;28;20048;-57
2023/01/21 04:02:52;;;;;;;41.15;6.40;;;;;;;;;;5060003;28;20037;-55
2023/01/21 04:05:19;;;;;;;17.65;4.35;;;;;;;;;;5058111;28;20053;-57
2023/01/21 04:07:45;;;;;;;35.65;6.03;;;;;;;;;;5059167;28;20064;-57
2023/01/21 04:10:12;;;;;;;27.92;5.43;;;;;;;;;;5062837;28;20049;-57
2023/01/21 04:12:39;;;;;;;40.65;5.95;;;;;;;;;;5067197;28;20459;-57
2023/01/21 04:15:06;;;;;;;27.73;4.88;;;;;;;;;;5056892;28;20037;-57
2023/01/21 04:17:32;;;;;;;42.70;5.80;;;;;;;;;;5058723;28;20128;-57
2023/01/21 04:19:59;;;;;;;28.40;4.75;;;;;;;;;;5060175;28;20041;-56
2023/01/21 04:22:25;;;;;;;73.22;9.38;;;;;;;;;;5057925;28;20051;-54
2023/01/21 04:24:52;;;;;;;22.30;4.13;;;;;;;;;;5058258;28;20073;-53
2023/01/21 04:27:18;;;;;;;29.80;4.82;;;;;;;;;;5058748;28;20048;-57
2023/01/21 04:29:45;;;;;;;26.33;4.80;;;;;;;;;;5059446;28;20040;-56
2023/01/21 04:32:11;;;;;;;34.67;5.25;;;;;;;;;;5058044;28;20044;-56
2023/01/21 04:34:38;;;;;;;50.47;6.13;;;;;;;;;;5060006;28;20055;-53
2023/01/21 04:37:04;;;;;;;43.53;5.47;;;;;;;;;;5057777;28;20072;-56
2023/01/21 04:39:30;;;;;;;21.80;4.20;;;;;;;;;;5061779;28;20044;-57
2023/01/21 04:41:57;;;;;;;48.78;5.88;;;;;;;;;;5056999;28;20596;-55
2023/01/21 04:44:23;;;;;;;37.45;4.88;;;;;;;;;;5059446;28;20496;-55
2023/01/21 04:46:50;;;;;;;29.85;4.50;;;;;;;;;;5058548;28;20064;-55
2023/01/21 04:49:16;;;;;;;36.88;5.50;;;;;;;;;;5062496;28;20388;-57
2023/01/21 04:51:43;;;;;;;32.28;4.57;;;;;;;;;;5060327;28;20049;-55
2023/01/21 04:54:10;;;;;;;23.15;3.92;;;;;;;;;;5057447;28;20029;-57
2023/01/21 04:56:36;;;;;;;39.88;5.43;;;;;;;;;;5060252;28;20052;-57
2023/01/21 04:59:03;;;;;;;33.25;5.75;;;;;;;;;;5058588;28;20120;-54
2023/01/21 05:01:30;;;;;;;48.55;7.85;;;;;;;;;;5058449;28;20123;-57
2023/01/21 05:03:56;;;;;;;49.97;8.38;;;;;;;;;;5057271;28;20099;-55
2023/01/21 05:06:23;;;;;;;41.13;7.15;;;;;;;;;;5057283;28;20048;-56
2023/01/21 05:08:49;;;;;;;20.30;4.53;;;;;;;;;;5060558;28;20040;-58
2023/01/21 05:11:16;;;;;;;32.40;4.35;;;;;;;;;;5058223;28;20094;-57
2023/01/21 05:13:43;;;;;;;28.42;3.72;;;;;;;;;;5056102;28;20081;-55
2023/01/21 05:16:10;;;;;;;22.73;3.03;;;;;;;;;;5056724;28;20044;-57
2023/01/21 05:18:36;;;;;;;40.63;4.68;;;;;;;;;;5061012;28;20049;-57
2023/01/21 05:21:03;;;;;;;27.35;3.22;;;;;;;;;;5056415;28;20039;-57
2023/01/21 05:23:30;;;;;;;37.55;4.53;;;;;;;;;;5058384;28;20049;-55
2023/01/21 05:25:56;;;;;;;34.72;3.97;;;;;;;;;;5059554;28;20037;-56
2023/01/21 05:28:23;;;;;;;42.08;4.53;;;;;;;;;;5059499;28;20099;-55
2023/01/21 05:30:49;;;;;;;20.83;2.85;;;;;;;;;;5057111;28;20045;-55
2023/01/21 05:33:16;;;;;;;31.10;3.70;;;;;;;;;;5056518;28;20509;-57
2023/01/21 05:35:43;;;;;;;29.02;3.53;;;;;;;;;;5059293;28;20045;-54
2023/01/21 05:38:09;;;;;;;27.85;3.50;;;;;;;;;;5057365;28;20386;-55
2023/01/21 05:40:36;;;;;;;49.33;5.55;;;;;;;;;;5042999;28;20414;-56
2023/01/21 05:43:02;;;;;;;43.20;4.93;;;;;;;;;;5051341;28;20124;-56
2023/01/21 05:45:29;;;;;;;33.58;4.38;;;;;;;;;;5056627;28;20053;-54
2023/01/21 05:47:55;;;;;;;28.80;3.60;;;;;;;;;;5040903;28;20068;-56
2023/01/21 05:50:22;;;;;;;49.90;5.72;;;;;;;;;;5071608;28;20390;-56
2023/01/21 05:52:48;;;;;;;32.67;4.47;;;;;;;;;;5056980;28;20128;-55
2023/01/21 05:55:15;;;;;;;26.52;3.97;;;;;;;;;;5057745;28;20047;-54
2023/01/21 05:57:42;;;;;;;37.13;5.20;;;;;;;;;;5057998;28;20044;-57
2023/01/21 06:00:09;;;;;;;33.70;4.68;;;;;;;;;;5038205;28;20118;-56
2023/01/21 06:02:35;;;;;;;42.13;5.13;;;;;;;;;;5054621;28;20103;-56
2023/01/21 06:05:02;;;;;;;41.40;5.45;;;;;;;;;;5057425;28;20040;-54
2023/01/21 06:07:28;;;;;;;39.08;5.20;;;;;;;;;;5058639;28;20052;-56
2023/01/21 06:09:55;;;;;;;31.10;4.22;;;;;;;;;;5057583;28;20036;-56
2023/01/21 06:12:21;;;;;;;56.30;7.78;;;;;;;;;;5053811;28;20053;-54
2023/01/21 06:14:50;;;;;;;31.17;5.75;;;;;;;;;;5056523;28;20431;-52
2023/01/21 06:17:17;;;;;;;23.48;4.53;;;;;;;;;;5056041;28;20044;-54
2023/01/21 06:19:43;;;;;;;46.10;6.72;;;;;;;;;;5055548;28;20083;-51
2023/01/21 06:22:14;;;;;;;28.15;4.25;;;;;;;;;;5055615;28;20045;-55
2023/01/21 06:24:40;;;;;;;46.55;6.07;;;;;;;;;;5054845;28;20401;-55
2023/01/21 06:27:07;;;;;;;38.85;5.18;;;;;;;;;;5057126;28;20079;-52
2023/01/21 06:29:33;;;;;;;31.05;4.88;;;;;;;;;;5057106;28;20072;-54
2023/01/21 06:32:00;;;;;;;30.60;4.20;;;;;;;;;;5056695;28;20035;-53
2023/01/21 06:34:27;;;;;;;73.65;8.07;;;;;;;;;;5068567;28;20079;-55
2023/01/21 06:36:53;;;;;;;25.95;4.30;;;;;;;;;;5063046;28;20064;-55
2023/01/21 06:39:20;;;;;;;27.27;4.78;;;;;;;;;;5056946;28;20045;-52
2023/01/21 06:41:47;;;;;;;41.38;5.55;;;;;;;;;;5085712;27;20460;-52
2023/01/21 06:44:13;;;;;;;39.13;5.47;;;;;;;;;;5058828;28;20497;-55
2023/01/21 06:46:40;;;;;;;50.72;9.02;;;;;;;;;;5057450;28;20052;-54
2023/01/21 06:49:17;;;;;;;34.88;7.78;;;;;;;;;;5057606;28;20037;-54
2023/01/21 06:51:44;;;;;;;51.75;14.77;;;;;;;;;;5069152;28;20071;-53
2023/01/21 06:54:10;;;;;;;63.17;18.40;;;;;;;;;;5055777;28;20047;-53
2023/01/21 06:56:37;;;;;;;109.03;23.75;;;;;;;;;;5056368;28;20677;-54
2023/01/21 06:59:03;;;;;;;110.60;26.63;;;;;;;;;;5054484;28;20047;-53
2023/01/21 07:01:30;;;;;;;87.50;20.42;;;;;;;;;;5058694;28;20448;-52
2023/01/21 07:04:00;;;;;;;83.40;17.95;;;;;;;;;;5035390;28;20501;-56
2023/01/21 07:06:27;;;;;;;87.18;13.82;;;;;;;;;;5057704;28;20072;-51
2023/01/21 07:08:53;;;;;;;57.35;11.02;;;;;;;;;;5055967;28;20123;-51
2023/01/21 07:11:20;;;;;;;68.70;13.98;;;;;;;;;;5057671;28;20032;-52
2023/01/21 07:13:46;;;;;;;80.97;17.63;;;;;;;;;;5054097;28;20444;-53
2023/01/21 07:16:13;;;;;;;52.20;11.40;;;;;;;;;;5045307;28;20552;-56
2023/01/21 07:18:40;;;;;;;82.82;16.67;;;;;;;;;;5058298;28;20048;-54
2023/01/21 07:21:06;;;;;;;38.55;7.82;;;;;;;;;;5053429;28;20091;-56
2023/01/21 07:23:33;;;;;;;42.90;9.63;;;;;;;;;;5063530;28;20052;-55
2023/01/21 07:26:00;;;;;;;43.85;6.70;;;;;;;;;;5039347;28;20798;-53
2023/01/21 07:28:27;;;;;;;57.72;8.25;;;;;;;;;;5039639;28;20051;-55
2023/01/21 07:30:53;;;;;;;39.25;5.85;;;;;;;;;;5054373;28;20135;-52
2023/01/21 07:33:20;;;;;;;44.35;9.00;;;;;;;;;;5067836;28;20045;-53
2023/01/21 07:35:47;;;;;;;35.15;5.97;;;;;;;;;;5070643;28;20052;-52
2023/01/21 07:38:13;;;;;;;39.10;6.50;;;;;;;;;;5057038;28;20127;-55
2023/01/21 07:40:40;;;;;;;58.10;7.55;;;;;;;;;;5086165;28;20048;-52
2023/01/21 07:43:07;;;;;;;27.13;4.68;;;;;;;;;;5047888;28;20072;-52
2023/01/21 07:45:34;;;;;;;51.25;6.85;;;;;;;;;;5057886;28;20037;-52
2023/01/21 07:48:01;;;;;;;76.60;9.30;;;;;;;;;;5054616;28;20049;-55
2023/01/21 07:50:28;;;;;;;38.88;5.88;;;;;;;;;;5040178;28;20504;-51
2023/01/21 07:52:55;;;;;;;41.50;5.68;;;;;;;;;;5053796;28;20069;-53
2023/01/21 07:55:22;;;;;;;38.25;5.00;;;;;;;;;;5038627;28;20056;-54
2023/01/21 07:57:49;;;;;;;53.50;9.73;;;;;;;;;;5055100;28;20504;-51
2023/01/21 08:00:15;;;;;;;69.15;15.50;;;;;;;;;;5053570;28;20037;-53
2023/01/21 08:02:42;;;;;;;70.95;14.27;;;;;;;;;;5053556;28;20460;-50
2023/01/21 08:05:09;;;;;;;57.85;12.48;;;;;;;;;;5055988;28;20399;-53
2023/01/21 08:07:36;;;;;;;87.60;19.55;;;;;;;;;;5054910;28;20048;-52
2023/01/21 08:10:03;;;;;;;70.20;12.05;;;;;;;;;;5022174;28;20132;-53
2023/01/21 08:12:29;;;;;;;50.40;8.57;;;;;;;;;;5062414;28;20056;-51
2023/01/21 08:14:56;;;;;;;42.83;9.20;;;;;;;;;;5058706;28;20128;-52
2023/01/21 08:17:23;;;;;;;41.15;6.72;;;;;;;;;;5056687;28;20064;-52
2023/01/21 08:19:49;;;;;;;51.15;10.35;;;;;;;;;;5058412;28;20049;-53
2023/01/21 08:22:16;;;;;;;53.55;11.18;;;;;;;;;;5074883;28;20081;-54
2023/01/21 08:24:43;;;;;;;48.15;11.15;;;;;;;;;;5058761;28;20052;-54
2023/01/21 08:27:10;;;;;;;42.55;9.48;;;;;;;;;;5074050;28;20098;-54
2023/01/21 08:29:36;;;;;;;51.80;10.57;;;;;;;;;;5055039;28;20158;-52
2023/01/21 08:32:03;;;;;;;60.42;12.50;;;;;;;;;;5074896;28;20045;-52
2023/01/21 08:34:30;;;;;;;69.35;12.63;;;;;;;;;;5059708;28;20055;-51
2023/01/21 08:36:56;;;;;;;33.53;6.57;;;;;;;;;;5043026;28;20118;-54
2023/01/21 08:39:23;;;;;;;53.13;10.00;;;;;;;;;;5075399;28;20041;-53
2023/01/21 08:41:49;;;;;;;51.92;8.85;;;;;;;;;;5074380;28;20089;-51
2023/01/21 08:44:16;;;;;;;41.42;6.38;;;;;;;;;;5057546;28;20032;-53
2023/01/21 08:46:42;;;;;;;47.67;7.40;;;;;;;;;;5078422;28;20140;-59
2023/01/21 08:49:09;;;;;;;54.92;7.68;;;;;;;;;;5078859;28;20098;-57
2023/01/21 08:51:35;;;;;;;44.28;8.80;;;;;;;;;;5078469;28;20044;-60
2023/01/21 08:54:05;;;;;;;35.08;7.05;;;;;;;;;;5079014;28;20048;-49
2023/01/21 08:56:31;;;;;;;50.80;8.40;;;;;;;;;;5077675;28;20032;-51
2023/01/21 08:58:58;;;;;;;42.25;8.80;;;;;;;;;;5078464;28;20046;-45
2023/01/21 09:01:25;;;;;;;34.33;6.53;;;;;;;;;;5061642;28;20044;-42
2023/01/21 09:03:55;;;;;;;44.03;6.97;;;;;;;;;;5080756;28;20118;-44
2023/01/21 09:06:26;;;;;;;41.10;8.80;;;;;;;;;;5061237;28;20059;-43
2023/01/21 09:08:53;;;;;;;37.70;6.45;;;;;;;;;;5076556;28;20142;-42
2023/01/21 09:11:20;;;;;;;53.90;11.38;;;;;;;;;;5081131;28;20118;-44
2023/01/21 09:13:46;;;;;;;41.42;7.95;;;;;;;;;;5078018;28;20048;-43
2023/01/21 09:16:17;;;;;;;39.63;9.70;;;;;;;;;;5079394;28;20055;-44
2023/01/21 09:18:44;;;;;;;37.63;9.35;;;;;;;;;;5078861;28;20549;-46
2023/01/21 09:21:11;;;;;;;56.22;14.52;;;;;;;;;;5077857;28;20043;-44
2023/01/21 09:23:38;;;;;;;63.78;12.55;;;;;;;;;;5079434;28;20040;-45
2023/01/21 09:26:11;;;;;;;41.70;11.18;;;;;;;;;;5078209;28;20037;-45
2023/01/21 09:28:37;;;;;;;;;;;;;;;;;;5078742;28;20063;-47
2023/01/21 09:31:06;;;;;;;54.80;10.88;;;;;;;;;;5078694;28;19985;-44
2023/01/21 09:33:33;;;;;;;44.30;11.82;;;;;;;;;;5080097;28;20043;-48
2023/01/21 09:36:01;;;;;;;39.22;12.48;;;;;;;;;;5076873;28;20040;-49
2023/01/21 09:38:28;;;;;;;54.13;13.55;;;;;;;;;;5077578;28;20043;-50
2023/01/21 09:40:57;;;;;;;49.50;13.30;;;;;;;;;;5059504;28;20052;-49
2023/01/21 09:43:34;;;;;;;56.65;11.95;;;;;;;;;;5077659;28;20055;-54
2023/01/21 09:46:02;;;;;;;53.83;13.68;;;;;;;;;;5079335;28;20086;-50
2023/01/21 09:48:38;;;;;;;51.65;11.25;;;;;;;;;;5081139;28;20036;-51
2023/01/21 09:51:08;;;;;;;52.65;13.13;;;;;;;;;;5084919;28;20032;-53
2023/01/21 09:53:40;;;;;;;118.30;18.65;;;;;;;;;;5074967;28;20059;-50
2023/01/21 09:56:13;;;;;;;48.25;12.27;;;;;;;;;;5085709;28;20044;-49
2023/01/21 09:58:42;;;;;;;69.88;12.88;;;;;;;;;;5084483;28;20059;-48
2023/01/21 10:01:14;;;;;;;47.42;13.77;;;;;;;;;;5088858;28;20043;-51
2023/01/21 10:03:40;;;;;;;50.50;12.55;;;;;;;;;;5085644;28;20181;-54
2023/01/21 10:06:24;;;;;;;38.03;10.48;;;;;;;;;;5084851;28;20484;-52
2023/01/21 10:09:09;;;;;;;44.05;9.73;;;;;;;;;;5084122;28;20075;-51
2023/01/21 10:11:41;;;;;;;44.10;10.38;;;;;;;;;;5085510;28;20488;-53
2023/01/21 10:14:20;;;;;;;69.45;13.60;;;;;;;;;;5083692;28;20683;-53
2023/01/21 10:16:53;;;;;;;67.32;13.20;;;;;;;;;;5086240;28;20042;-54
2023/01/21 10:19:21;;;;;;;55.40;12.13;;;;;;;;;;5081929;28;20048;-55
2023/01/21 10:21:51;;;;;;;40.80;11.90;;;;;;;;;;5079696;28;20036;-53
2023/01/21 10:24:29;;;;;;;41.67;10.40;;;;;;;;;;5075970;28;20064;-52
2023/01/21 10:26:56;;;;;;;68.15;13.52;;;;;;;;;;5074080;28;20111;-54
2023/01/21 10:29:24;;;;;;;39.45;9.57;;;;;;;;;;5080015;28;20040;-50
2023/01/21 10:31:58;;;;;;;47.22;10.35;;;;;;;;;;5078388;28;20146;-54
2023/01/21 10:34:28;;;;;;;65.90;15.73;;;;;;;;;;5078518;28;20455;-54
2023/01/21 10:37:16;;;;;;;53.75;14.48;;;;;;;;;;5075145;28;20036;-51
2023/01/21 10:40:01;;;;;;;41.67;12.60;;;;;;;;;;5075231;28;20040;-51
2023/01/21 10:42:45;;;;;;;54.40;12.10;;;;;;;;;;5077194;28;20048;-52
2023/01/21 10:45:17;;;;;;;41.25;11.05;;;;;;;;;;5072759;28;20036;-52
2023/01/21 10:47:59;;;;;;;51.60;11.68;;;;;;;;;;5074224;28;20048;-52
2023/01/21 10:50:37;;;;;;;45.35;10.95;;;;;;;;;;5072119;28;20036;-52
2023/01/21 10:53:04;;;;;;;53.22;10.77;;;;;;;;;;5076472;28;20119;-49
2023/01/21 10:55:33;;;;;;;53.67;12.85;;;;;;;;;;5077787;28;20573;-52
2023/01/21 10:58:18;;;;;;;55.63;12.35;;;;;;;;;;5073302;28;20072;-52
2023/01/21 11:00:46;;;;;;;48.17;13.25;;;;;;;;;;5076622;28;20036;-53
2023/01/21 11:03:15;;;;;;;33.22;9.88;;;;;;;;;;5074798;28;20047;-54
2023/01/21 11:05:41;;;;;;;58.40;14.88;;;;;;;;;;5073720;28;20045;-52
2023/01/21 11:08:12;;;;;;;67.88;18.38;;;;;;;;;;5075534;28;20040;-53
2023/01/21 11:10:39;;;;;;;63.95;14.75;;;;;;;;;;5078876;28;20063;-53
2023/01/21 11:13:09;;;;;;;52.40;14.50;;;;;;;;;;5078034;28;20062;-54
2023/01/21 11:15:35;;;;;;;47.30;15.07;;;;;;;;;;5079010;28;20044;-54
2023/01/21 11:18:22;;;;;;;50.13;13.30;;;;;;;;;;5078061;28;20039;-49
2023/01/21 11:20:48;;;;;;;47.45;12.27;;;;;;;;;;5078317;28;20040;-53
2023/01/21 11:23:27;;;;;;;49.83;11.60;;;;;;;;;;5077233;28;20149;-55
2023/01/21 11:26:04;;;;;;;68.75;15.07;;;;;;;;;;5075984;28;20424;-54
2023/01/21 11:28:31;;;;;;;62.15;13.75;;;;;;;;;;5075367;28;20048;-54
2023/01/21 11:31:07;;;;;;;52.22;13.35;;;;;;;;;;5078480;28;20037;-52
2023/01/21 11:33:34;;;;;;;47.83;12.40;;;;;;;;;;5057992;28;20048;-53
2023/01/21 11:36:13;;;;;;;56.80;13.13;;;;;;;;;;5073203;28;20036;-53
2023/01/21 11:38:39;;;;;;;56.80;14.73;;;;;;;;;;5075489;28;20080;-52
2023/01/21 11:41:09;;;;;;;48.10;13.82;;;;;;;;;;5077124;28;20111;-54
2023/01/21 11:43:39;;;;;;;60.58;12.70;;;;;;;;;;5076760;28;20056;-53
2023/01/21 11:46:29;;;;;;;65.53;14.50;;;;;;;;;;5074119;28;20043;-53
2023/01/21 11:49:12;;;;;;;54.83;13.05;;;;;;;;;;5074625;28;20056;-54
2023/01/21 11:51:39;;;;;;;46.37;13.53;;;;;;;;;;5077155;28;20072;-52
2023/01/21 11:54:19;;;;;;;62.88;14.45;;;;;;;;;;5072168;28;20037;-51
2023/01/21 11:56:54;;;;;;;49.70;13.50;;;;;;;;;;5074011;28;20123;-53
2023/01/21 11:59:30;;;;;;;59.08;13.18;;;;;;;;;;5076023;28;20052;-54
2023/01/21 12:02:09;;;;;;;55.75;13.73;;;;;;;;;;5077852;28;20043;-55
2023/01/21 12:04:36;;;;;;;65.93;15.68;;;;;;;;;;5078485;28;20044;-52
2023/01/21 12:07:03;;;;;;;52.58;14.38;;;;;;;;;;5072650;28;20499;-54
2023/01/21 12:09:30;;;;;;;47.03;12.25;;;;;;;;;;5077823;28;20041;-51
2023/01/21 12:12:05;;;;;;;74.15;17.15;;;;;;;;;;5073820;28;20044;-51
2023/01/21 12:14:40;;;;;;;69.95;16.13;;;;;;;;;;5072650;28;20048;-52
2023/01/21 12:17:15;;;;;;;55.42;15.85;;;;;;;;;;5075103;28;20028;-54
2023/01/21 12:19:42;;;;;;;70.15;16.60;;;;;;;;;;5077863;28;20138;-50
2023/01/21 12:22:18;;;;;;;54.85;16.70;;;;;;;;;;5080927;28;20037;-49
2023/01/21 12:24:47;;;;;;;66.65;17.17;;;;;;;;;;5076879;28;20052;-50
2023/01/21 12:27:22;;;;;;;60.05;15.45;;;;;;;;;;5065283;28;20036;-48
2023/01/21 12:30:07;;;;;;;65.88;16.70;;;;;;;;;;5083331;28;20045;-55
2023/01/21 12:32:37;;;;;;;183.45;27.65;;;;;;;;;;5077075;28;20444;-57
2023/01/21 12:35:07;;;;;;;92.53;16.77;;;;;;;;;;5085666;28;20565;-48
2023/01/21 12:37:41;;;;;;;64.70;15.20;;;;;;;;;;5089864;28;20036;-45
2023/01/21 12:40:19;;;;;;;55.90;16.48;;;;;;;;;;5088391;28;20520;-61
2023/01/21 12:42:50;;;;;;;55.63;15.70;;;;;;;;;;5070134;28;20052;-52
2023/01/21 12:45:19;;;;;;;67.97;17.75;;;;;;;;;;5085488;28;20492;-58
2023/01/21 12:47:52;;;;;;;73.15;18.40;;;;;;;;;;5085004;28;20097;-51
2023/01/21 12:50:34;;;;;;;81.15;19.33;;;;;;;;;;5087589;28;20036;-48
2023/01/21 12:53:21;;;;;;;82.65;18.38;;;;;;;;;;5084891;28;20123;-60
2023/01/21 12:55:48;;;;;;;72.25;16.00;;;;;;;;;;5086916;28;20040;-60
2023/01/21 12:58:17;;;;;;;71.15;18.60;;;;;;;;;;5088206;28;20432;-44
2023/01/21 13:00:46;;;;;;;67.20;17.27;;;;;;;;;;5087039;28;20063;-45
2023/01/21 13:03:31;;;;;;;57.47;15.18;;;;;;;;;;5082822;28;20399;-55
2023/01/21 13:06:16;;;;;;;60.45;16.98;;;;;;;;;;5084937;28;20119;-60
2023/01/21 13:08:48;;;;;;;70.93;18.02;;;;;;;;;;5085728;28;20036;-62
2023/01/21 13:11:26;;;;;;;66.53;16.27;;;;;;;;;;5085299;28;20044;-52
2023/01/21 13:13:56;;;;;;;80.85;20.48;;;;;;;;;;5085546;28;20059;-51
2023/01/21 13:16:25;;;;;;;75.53;19.55;;;;;;;;;;5089212;28;20051;-52
2023/01/21 13:18:52;;;;;;;85.03;19.58;;;;;;;;;;5080395;28;20598;-51
2023/01/21 13:21:31;;;;;;;66.03;17.08;;;;;;;;;;5076747;28;20115;-52
2023/01/21 13:24:06;;;;;;;58.63;17.00;;;;;;;;;;5076186;28;20043;-51
2023/01/21 13:26:45;;;;;;;67.90;18.80;;;;;;;;;;5076443;28;20440;-50
2023/01/21 13:29:37;;;;;;;52.28;14.27;;;;;;;;;;5076313;28;20032;-50
2023/01/21 13:32:18;;;;;;;89.75;22.10;;;;;;;;;;5017160;28;20054;-51
2023/01/21 13:34:48;;;;;;;77.90;20.58;;;;;;;;;;5018932;28;20067;-52
2023/01/21 13:37:14;;;;;;;78.43;20.10;;;;;;;;;;5022365;28;20045;-52
2023/01/21 13:39:51;;;;;;;77.97;20.50;;;;;;;;;;5018035;28;20540;-51
2023/01/21 13:42:56;;;;;;;68.38;18.70;;;;;;;;;;5018567;28;20501;-53
2023/01/21 13:45:45;;;;;;;94.03;24.65;;;;;;;;;;4960052;28;20492;-53
2023/01/21 13:48:24;;;;;;;63.20;17.75;;;;;;;;;;4948136;28;20204;-55
2023/01/21 13:51:00;;;;;;;83.00;21.15;;;;;;;;;;4961617;28;20063;-52
2023/01/21 13:53:45;;;;;;;78.03;21.67;;;;;;;;;;4959719;28;20420;-51
2023/01/21 13:56:19;;;;;;;91.32;21.33;;;;;;;;;;4961300;28;20692;-52
2023/01/21 13:59:00;;;;;;;75.88;20.25;;;;;;;;;;4958351;28;20053;-50
2023/01/21 14:01:30;;;;;;;108.45;23.73;;;;;;;;;;4957627;28;20098;-51
2023/01/21 14:04:01;;;;;;;72.95;21.13;;;;;;;;;;4955423;28;20579;-52
2023/01/21 14:06:34;;;;;;;82.68;22.67;;;;;;;;;;4960886;28;20039;-50
2023/01/21 14:09:08;;;;;;;80.83;23.37;;;;;;;;;;4993211;28;20188;-51
2023/01/21 14:11:40;;;;;;;71.05;20.20;;;;;;;;;;5026130;28;20439;-52
2023/01/21 14:14:09;;;;;;;79.88;18.70;;;;;;;;;;5023448;28;20050;-54
2023/01/21 14:16:59;;;;;;;73.60;21.55;;;;;;;;;;5061661;28;20123;-55
2023/01/21 14:19:38;;;;;;;77.68;20.92;;;;;;;;;;5079690;28;20049;-55
2023/01/21 14:22:12;;;;;;;65.65;19.17;;;;;;;;;;5075357;28;20554;-55
2023/01/21 14:24:45;;;;;;;79.93;22.73;;;;;;;;;;5073782;28;20037;-53
2023/01/21 14:27:30;;;;;;;75.57;21.93;;;;;;;;;;5078302;28;20055;-53
2023/01/21 14:30:04;;;;;;;87.97;22.55;;;;;;;;;;5075068;28;20591;-55
2023/01/21 14:32:42;;;;;;;99.55;25.20;;;;;;;;;;5076397;28;20463;-52
2023/01/21 14:35:32;;;;;;;103.53;25.23;;;;;;;;;;5077853;28;20123;-50
2023/01/21 14:38:08;;;;;;;94.70;24.17;;;;;;;;;;5070259;28;20072;-51
2023/01/21 14:40:42;;;;;;;82.07;22.13;;;;;;;;;;5079363;28;20123;-51
2023/01/21 14:43:17;;;;;;;63.92;18.88;;;;;;;;;;5074296;28;20036;-51
2023/01/21 14:45:54;;;;;;;73.32;20.58;;;;;;;;;;5079372;28;20036;-50